Time;durP1;ratioP1;P1;durP2;ratioP2;P2;SDS_P1;SDS_P2;PMS_P1;PMS_P2;Temp;Humidity;BMP_temperature;BMP_pressure;BME280_temperature;BME280_humidity;BME280_pressure;Samples;Min_cycle;Max_cycle;Signal;HPM_P1;HPM_P2
2024/01/16 00:02:08;;;;;;;58.25;47.08;;;;;;;;;;10188891;28;20131;-73
2024/01/16 00:07:00;;;;;;;67.45;48.92;;;;;;;;;;10162299;28;20087;-73
2024/01/16 00:11:52;;;;;;;63.90;54.22;;;;;;;;;;10149032;28;20056;-74
2024/01/16 00:16:48;;;;;;;66.75;54.72;;;;;;;;;;10147921;28;20435;-74
2024/01/16 00:21:41;;;;;;;71.00;54.53;;;;;;;;;;10147023;28;20536;-73
2024/01/16 00:26:33;;;;;;;65.22;56.15;;;;;;;;;;10147229;28;20056;-74
2024/01/16 00:31:25;;;;;;;63.03;51.10;;;;;;;;;;10146960;28;20127;-73
2024/01/16 00:36:17;;;;;;;68.15;55.08;;;;;;;;;;10147824;28;20497;-75
2024/01/16 00:41:09;;;;;;;70.22;56.10;;;;;;;;;;10146293;28;20487;-73
2024/01/16 00:46:01;;;;;;;65.72;55.75;;;;;;;;;;10146881;28;20558;-73
2024/01/16 00:50:53;;;;;;;65.15;57.13;;;;;;;;;;10147448;28;20671;-73
2024/01/16 00:55:45;;;;;;;67.90;55.28;;;;;;;;;;10146578;28;20040;-74
2024/01/16 01:00:37;;;;;;;69.47;55.70;;;;;;;;;;10145961;28;20036;-73
2024/01/16 01:05:29;;;;;;;63.60;53.28;;;;;;;;;;10146792;28;20435;-74
2024/01/16 01:10:22;;;;;;;64.40;50.85;;;;;;;;;;10146420;28;20497;-73
2024/01/16 01:15:14;;;;;;;64.85;51.45;;;;;;;;;;10145891;28;20349;-73
2024/01/16 01:20:08;;;;;;;61.72;48.53;;;;;;;;;;10144234;28;20086;-75
2024/01/16 01:25:00;;;;;;;71.25;52.17;;;;;;;;;;10145180;28;20091;-73
2024/01/16 01:29:51;;;;;;;69.13;56.42;;;;;;;;;;10146289;28;20041;-73
2024/01/16 01:34:43;;;;;;;71.13;56.63;;;;;;;;;;10153823;28;20040;-73
2024/01/16 01:39:35;;;;;;;68.43;55.53;;;;;;;;;;10144389;28;20094;-73
2024/01/16 01:44:27;;;;;;;67.60;56.97;;;;;;;;;;10146170;28;20095;-74
2024/01/16 01:49:20;;;;;;;79.15;62.13;;;;;;;;;;10145260;28;20045;-74
2024/01/16 01:54:13;;;;;;;74.22;59.67;;;;;;;;;;10145117;28;20072;-74
2024/01/16 01:59:06;;;;;;;72.53;61.92;;;;;;;;;;10144764;28;20049;-74
2024/01/16 02:03:59;;;;;;;72.88;58.95;;;;;;;;;;10144271;28;20106;-73
2024/01/16 02:08:51;;;;;;;74.30;57.20;;;;;;;;;;10144048;28;20459;-73
2024/01/16 02:13:43;;;;;;;70.50;58.50;;;;;;;;;;10148993;28;20068;-73
2024/01/16 02:18:35;;;;;;;70.95;58.33;;;;;;;;;;10151546;28;20339;-73
2024/01/16 02:23:27;;;;;;;76.07;60.95;;;;;;;;;;10151214;28;20038;-74
2024/01/16 02:28:19;;;;;;;75.90;59.97;;;;;;;;;;10151413;28;20437;-74
2024/01/16 02:33:12;;;;;;;71.28;57.40;;;;;;;;;;10151779;28;21224;-74
2024/01/16 02:38:04;;;;;;;71.78;60.20;;;;;;;;;;10151930;28;20045;-74
2024/01/16 02:42:56;;;;;;;75.95;57.53;;;;;;;;;;10152209;28;20367;-73
2024/01/16 02:47:48;;;;;;;71.70;57.72;;;;;;;;;;10150058;28;20045;-74
2024/01/16 02:52:40;;;;;;;77.32;57.65;;;;;;;;;;10149486;28;20042;-74
2024/01/16 02:57:32;;;;;;;74.38;59.45;;;;;;;;;;10150841;28;20056;-73
2024/01/16 03:02:24;;;;;;;73.88;58.20;;;;;;;;;;10150798;28;20044;-74
2024/01/16 03:07:16;;;;;;;77.25;58.65;;;;;;;;;;10149585;28;20447;-74
2024/01/16 03:12:08;;;;;;;77.03;61.15;;;;;;;;;;10150989;28;20377;-73
2024/01/16 03:17:01;;;;;;;72.68;56.90;;;;;;;;;;10149626;28;20072;-74
2024/01/16 03:21:53;;;;;;;74.28;57.97;;;;;;;;;;10150267;28;20043;-73
2024/01/16 03:26:45;;;;;;;66.32;55.13;;;;;;;;;;10147965;28;20124;-74
2024/01/16 03:31:37;;;;;;;71.93;57.58;;;;;;;;;;10149367;28;20048;-74
2024/01/16 03:36:29;;;;;;;70.00;54.33;;;;;;;;;;10150148;28;20077;-74
2024/01/16 03:41:21;;;;;;;67.40;52.92;;;;;;;;;;10165488;28;20063;-74
2024/01/16 03:46:13;;;;;;;70.60;55.58;;;;;;;;;;10149893;28;20056;-74
2024/01/16 03:51:06;;;;;;;73.53;57.30;;;;;;;;;;10148680;28;20422;-73
2024/01/16 03:55:58;;;;;;;76.40;58.47;;;;;;;;;;10148445;28;20052;-74
2024/01/16 04:00:53;;;;;;;69.05;56.88;;;;;;;;;;10148192;28;20068;-74
2024/01/16 04:05:45;;;;;;;76.47;60.97;;;;;;;;;;10149164;28;20070;-73
2024/01/16 04:10:37;;;;;;;75.45;59.13;;;;;;;;;;10148513;28;20036;-73
2024/01/16 04:15:29;;;;;;;80.15;61.97;;;;;;;;;;10147715;28;20052;-73
2024/01/16 04:20:21;;;;;;;71.97;59.35;;;;;;;;;;10147132;28;20424;-73
2024/01/16 04:25:13;;;;;;;78.28;62.63;;;;;;;;;;10148067;28;20352;-73
2024/01/16 04:30:05;;;;;;;75.05;59.35;;;;;;;;;;10147820;28;20127;-73
2024/01/16 04:34:57;;;;;;;81.22;61.03;;;;;;;;;;10148417;28;20048;-73
2024/01/16 04:39:49;;;;;;;80.55;65.03;;;;;;;;;;10147190;28;20087;-73
2024/01/16 04:44:41;;;;;;;83.72;68.00;;;;;;;;;;10146950;28;20064;-73
2024/01/16 04:49:33;;;;;;;74.13;60.10;;;;;;;;;;10147114;28;20063;-73
2024/01/16 04:54:25;;;;;;;77.18;61.15;;;;;;;;;;10146386;28;20040;-73
2024/01/16 04:59:17;;;;;;;83.78;63.63;;;;;;;;;;10146153;28;20067;-73
2024/01/16 05:04:10;;;;;;;77.60;62.67;;;;;;;;;;10145809;28;20044;-73
2024/01/16 05:09:03;;;;;;;87.65;69.35;;;;;;;;;;10147711;28;20040;-73
2024/01/16 05:13:57;;;;;;;84.22;63.30;;;;;;;;;;10147280;28;20351;-73
2024/01/16 05:18:49;;;;;;;86.00;68.85;;;;;;;;;;10146654;28;20044;-73
2024/01/16 05:23:41;;;;;;;84.53;67.85;;;;;;;;;;10146252;28;20129;-73
2024/01/16 05:28:34;;;;;;;78.57;63.28;;;;;;;;;;10147684;28;20099;-73
2024/01/16 05:33:27;;;;;;;77.90;63.70;;;;;;;;;;10145145;28;20053;-73
2024/01/16 05:38:20;;;;;;;85.88;65.97;;;;;;;;;;10147050;28;20094;-73
2024/01/16 05:43:11;;;;;;;90.60;68.38;;;;;;;;;;10144240;28;20468;-73
2024/01/16 05:48:03;;;;;;;86.63;67.10;;;;;;;;;;10148334;28;20390;-75
2024/01/16 05:52:55;;;;;;;87.20;70.95;;;;;;;;;;10153533;28;20482;-75
2024/01/16 05:57:47;;;;;;;102.80;82.97;;;;;;;;;;10177900;28;20510;-75
2024/01/16 06:02:39;;;;;;;88.07;69.32;;;;;;;;;;10189295;28;20040;-74
2024/01/16 06:07:31;;;;;;;95.93;77.57;;;;;;;;;;10169602;28;20121;-73
2024/01/16 06:12:23;;;;;;;94.30;74.13;;;;;;;;;;10189506;28;20032;-75
2024/01/16 06:17:15;;;;;;;111.07;81.35;;;;;;;;;;10190346;28;20032;-76
2024/01/16 06:22:08;;;;;;;85.32;67.88;;;;;;;;;;10190834;28;20040;-76
2024/01/16 06:27:00;;;;;;;180.80;145.38;;;;;;;;;;10190767;28;20135;-77
2024/01/16 06:31:52;;;;;;;126.20;95.60;;;;;;;;;;10190625;28;20044;-77
2024/01/16 06:36:44;;;;;;;94.65;70.55;;;;;;;;;;10163489;28;20040;-76
2024/01/16 06:41:36;;;;;;;137.88;105.50;;;;;;;;;;10151846;28;20437;-75
2024/01/16 06:46:28;;;;;;;177.18;129.43;;;;;;;;;;10151353;28;20052;-76
2024/01/16 06:51:20;;;;;;;138.25;103.97;;;;;;;;;;10151915;28;20052;-76
2024/01/16 06:56:12;;;;;;;98.82;79.43;;;;;;;;;;10154081;28;20117;-76
2024/01/16 07:01:04;;;;;;;86.72;65.15;;;;;;;;;;10149464;28;20090;-76
2024/01/16 07:05:56;;;;;;;87.40;66.65;;;;;;;;;;10154499;28;20060;-76
2024/01/16 07:10:48;;;;;;;88.82;66.25;;;;;;;;;;10151396;28;20567;-76
2024/01/16 07:15:40;;;;;;;83.00;60.97;;;;;;;;;;10150557;28;20050;-77
2024/01/16 07:20:32;;;;;;;76.25;57.00;;;;;;;;;;10151582;28;20044;-77
2024/01/16 07:25:24;;;;;;;71.35;54.42;;;;;;;;;;10151521;28;20045;-77
2024/01/16 07:30:15;;;;;;;69.78;51.15;;;;;;;;;;10159128;28;20064;-76
2024/01/16 07:35:08;;;;;;;65.57;52.42;;;;;;;;;;10161218;28;20066;-76
2024/01/16 07:40:00;;;;;;;71.00;56.80;;;;;;;;;;10151467;28;20120;-77
2024/01/16 07:44:52;;;;;;;73.80;58.08;;;;;;;;;;10147671;28;20053;-77
2024/01/16 07:49:44;;;;;;;73.75;59.65;;;;;;;;;;10149792;28;20382;-73
2024/01/16 07:54:36;;;;;;;82.45;60.95;;;;;;;;;;10148413;28;20036;-73
2024/01/16 07:59:28;;;;;;;82.95;62.88;;;;;;;;;;10146635;28;20124;-74
2024/01/16 08:04:20;;;;;;;80.90;64.03;;;;;;;;;;10147459;28;20463;-73
2024/01/16 08:09:12;;;;;;;80.55;62.25;;;;;;;;;;10143265;28;20062;-73
2024/01/16 08:14:04;;;;;;;89.55;67.68;;;;;;;;;;10142148;28;20076;-73
2024/01/16 08:18:56;;;;;;;91.40;72.38;;;;;;;;;;10142541;28;20052;-73
2024/01/16 08:23:48;;;;;;;105.43;79.22;;;;;;;;;;10146700;28;20047;-72
2024/01/16 08:28:40;;;;;;;95.93;75.63;;;;;;;;;;10145203;28;20105;-74
2024/01/16 08:33:32;;;;;;;105.45;78.60;;;;;;;;;;10146404;28;20048;-74
2024/01/16 08:38:36;;;;;;;90.05;73.55;;;;;;;;;;10144494;28;21008;-74
2024/01/16 08:43:28;;;;;;;94.30;74.05;;;;;;;;;;10159417;28;20113;-74
2024/01/16 08:48:20;;;;;;;91.00;70.45;;;;;;;;;;10147037;28;20385;-74
2024/01/16 08:53:12;;;;;;;99.28;78.50;;;;;;;;;;10150903;28;20086;-74
2024/01/16 08:58:04;;;;;;;97.93;75.78;;;;;;;;;;10147646;28;20132;-74
2024/01/16 09:02:55;;;;;;;102.80;78.20;;;;;;;;;;10145770;28;20102;-73
2024/01/16 09:07:47;;;;;;;96.57;76.88;;;;;;;;;;10144723;28;20072;-72
2024/01/16 09:12:39;;;;;;;100.32;76.45;;;;;;;;;;10145490;28;20095;-74
2024/01/16 09:17:31;;;;;;;112.18;88.55;;;;;;;;;;10145124;28;20049;-74
2024/01/16 09:22:23;;;;;;;97.70;79.30;;;;;;;;;;10146231;28;20075;-74
2024/01/16 09:27:19;;;;;;;95.80;75.35;;;;;;;;;;10160817;28;20431;-74
2024/01/16 09:32:11;;;;;;;93.47;73.35;;;;;;;;;;10152833;28;20049;-74
2024/01/16 09:37:04;;;;;;;97.60;74.15;;;;;;;;;;10154797;28;20378;-74
2024/01/16 09:42:00;;;;;;;95.47;73.80;;;;;;;;;;10155364;28;20044;-74
2024/01/16 09:46:53;;;;;;;86.82;68.68;;;;;;;;;;10153239;28;20121;-74
2024/01/16 09:51:53;;;;;;;94.70;75.20;;;;;;;;;;10162907;28;20075;-74
2024/01/16 09:57:20;;;;;;;87.53;70.70;;;;;;;;;;10148002;28;20123;-74
2024/01/16 10:08:27;;;;;;;97.82;75.45;;;;;;;;;;10150252;28;20063;-74
2024/01/16 10:13:29;;;;;;;93.43;75.88;;;;;;;;;;10159841;28;20632;-74
2024/01/16 10:19:01;;;;;;;102.35;81.15;;;;;;;;;;10159145;28;20056;-73
2024/01/16 10:24:17;;;;;;;103.28;82.47;;;;;;;;;;10152627;28;20048;-73
2024/01/16 10:29:23;;;;;;;104.18;77.82;;;;;;;;;;10159852;28;20058;-72
2024/01/16 10:35:00;;;;;;;101.25;74.90;;;;;;;;;;10151291;28;20053;-73
2024/01/16 10:40:05;;;;;;;;;;;;;;;;;;10151447;28;20159;-73
2024/01/16 10:44:57;;;;;;;90.72;72.07;;;;;;;;;;10153668;28;20343;-73
2024/01/16 10:50:11;;;;;;;97.38;76.22;;;;;;;;;;10150570;28;20040;-74
2024/01/16 10:55:09;;;;;;;85.80;72.43;;;;;;;;;;10149582;28;20425;-74
2024/01/16 11:00:08;;;;;;;86.80;70.07;;;;;;;;;;10165795;28;20385;-73
2024/01/16 11:05:00;;;;;;;86.22;68.18;;;;;;;;;;10147822;28;20471;-74
2024/01/16 11:09:52;;;;;;;96.97;78.82;;;;;;;;;;10149005;28;20052;-73
2024/01/16 11:14:45;;;;;;;94.13;78.30;;;;;;;;;;10155278;28;20140;-73
2024/01/16 11:19:37;;;;;;;90.75;72.15;;;;;;;;;;10149636;28;20383;-74
2024/01/16 11:25:14;;;;;;;98.80;78.43;;;;;;;;;;10150337;28;20048;-74
2024/01/16 11:30:10;;;;;;;93.60;73.03;;;;;;;;;;10149644;28;20101;-74
2024/01/16 11:35:04;;;;;;;96.47;73.25;;;;;;;;;;10150633;28;20040;-73
2024/01/16 11:40:34;;;;;;;92.72;69.25;;;;;;;;;;10148227;28;20044;-73
2024/01/16 11:45:29;;;;;;;90.80;69.07;;;;;;;;;;10049695;28;20155;-73
2024/01/16 11:50:28;;;;;;;91.05;70.53;;;;;;;;;;10147821;28;20102;-73
2024/01/16 11:55:47;;;;;;;73.90;63.97;;;;;;;;;;10147800;28;20044;-73
2024/01/16 12:00:44;;;;;;;74.78;65.13;;;;;;;;;;10139643;28;20044;-72
2024/01/16 12:05:36;;;;;;;78.85;63.30;;;;;;;;;;10151944;28;20939;-73
2024/01/16 12:10:28;;;;;;;76.68;62.83;;;;;;;;;;10146706;28;20062;-73
2024/01/16 12:15:21;;;;;;;81.88;63.63;;;;;;;;;;10148256;28;20511;-73
2024/01/16 12:20:17;;;;;;;76.13;58.55;;;;;;;;;;10148504;28;20047;-72
2024/01/16 12:25:10;;;;;;;70.05;56.10;;;;;;;;;;10146920;28;20037;-73
2024/01/16 12:30:07;;;;;;;76.78;60.08;;;;;;;;;;10144159;28;20036;-73
2024/01/16 12:34:59;;;;;;;79.57;65.95;;;;;;;;;;10146054;28;20048;-73
2024/01/16 12:39:52;;;;;;;72.35;61.30;;;;;;;;;;10147195;28;20170;-73
2024/01/16 12:44:45;;;;;;;77.32;60.67;;;;;;;;;;10145133;28;20502;-73
2024/01/16 12:49:42;;;;;;;76.30;56.60;;;;;;;;;;10145036;28;20052;-73
2024/01/16 12:54:35;;;;;;;68.05;52.50;;;;;;;;;;10144191;28;20045;-73
2024/01/16 12:59:30;;;;;;;67.28;50.83;;;;;;;;;;10161460;28;20044;-73
2024/01/16 13:04:22;;;;;;;63.17;50.67;;;;;;;;;;10146394;28;20056;-73
2024/01/16 13:09:18;;;;;;;67.40;53.08;;;;;;;;;;10145903;28;20044;-72
2024/01/16 13:14:10;;;;;;;62.60;50.40;;;;;;;;;;10154735;28;20033;-72
2024/01/16 13:19:04;;;;;;;66.55;50.92;;;;;;;;;;10162380;28;20489;-73
2024/01/16 13:23:56;;;;;;;64.15;51.10;;;;;;;;;;10145006;28;20045;-73
2024/01/16 13:28:48;;;;;;;65.32;52.28;;;;;;;;;;10144750;28;20057;-73
2024/01/16 13:33:40;;;;;;;55.63;47.65;;;;;;;;;;10144401;28;20140;-73
2024/01/16 13:38:32;;;;;;;62.88;46.58;;;;;;;;;;10146892;28;20101;-73
2024/01/16 13:43:24;;;;;;;66.70;48.50;;;;;;;;;;10148378;28;20045;-74
2024/01/16 13:48:17;;;;;;;55.58;45.92;;;;;;;;;;10151684;28;20048;-73
2024/01/16 13:53:09;;;;;;;53.05;44.28;;;;;;;;;;10145156;28;20040;-74
2024/01/16 13:58:01;;;;;;;62.42;44.92;;;;;;;;;;10143351;28;20093;-74
2024/01/16 14:02:54;;;;;;;57.50;49.70;;;;;;;;;;10146128;28;20098;-72
2024/01/16 14:07:51;;;;;;;49.35;42.53;;;;;;;;;;10144092;28;20098;-72
2024/01/16 14:12:45;;;;;;;58.53;43.42;;;;;;;;;;10151420;28;20062;-73
2024/01/16 14:17:38;;;;;;;58.10;44.42;;;;;;;;;;10150486;28;20051;-72
2024/01/16 14:22:30;;;;;;;63.38;42.65;;;;;;;;;;10161318;28;20528;-73
2024/01/16 14:27:22;;;;;;;53.88;45.38;;;;;;;;;;10148710;28;20063;-73
2024/01/16 14:32:16;;;;;;;55.28;43.55;;;;;;;;;;10151579;28;20423;-73
2024/01/16 14:37:08;;;;;;;56.08;46.47;;;;;;;;;;10150964;28;20032;-74
2024/01/16 14:42:02;;;;;;;50.35;41.75;;;;;;;;;;10153284;28;20040;-73
2024/01/16 14:46:54;;;;;;;55.47;45.20;;;;;;;;;;10158473;28;20110;-73
2024/01/16 14:51:46;;;;;;;53.22;41.33;;;;;;;;;;10149902;28;20316;-73
2024/01/16 14:56:39;;;;;;;52.10;40.65;;;;;;;;;;10148930;28;20041;-74
2024/01/16 15:01:31;;;;;;;45.28;37.42;;;;;;;;;;10150140;28;20032;-74
2024/01/16 15:06:25;;;;;;;44.90;38.08;;;;;;;;;;10149754;28;20070;-74
2024/01/16 15:11:17;;;;;;;48.25;39.83;;;;;;;;;;10149573;28;20118;-74
2024/01/16 15:16:10;;;;;;;47.10;38.97;;;;;;;;;;10151576;28;20041;-75
2024/01/16 15:21:02;;;;;;;48.90;37.78;;;;;;;;;;10147531;28;20416;-74
2024/01/16 15:25:56;;;;;;;42.95;38.25;;;;;;;;;;10148820;28;20331;-74
2024/01/16 15:30:47;;;;;;;43.78;37.45;;;;;;;;;;10148851;28;20059;-74
2024/01/16 15:35:39;;;;;;;40.03;35.67;;;;;;;;;;10149063;28;20056;-74
2024/01/16 15:40:31;;;;;;;47.33;38.25;;;;;;;;;;10148295;28;20494;-74
2024/01/16 15:45:23;;;;;;;47.42;42.05;;;;;;;;;;10155575;28;20052;-73
2024/01/16 15:50:18;;;;;;;46.00;38.00;;;;;;;;;;10147449;28;20051;-74
2024/01/16 15:55:10;;;;;;;50.05;38.78;;;;;;;;;;10147127;28;20051;-74
2024/01/16 16:00:05;;;;;;;40.45;36.08;;;;;;;;;;10146683;28;20396;-74
2024/01/16 16:04:57;;;;;;;48.00;39.60;;;;;;;;;;10147568;28;20120;-72
2024/01/16 16:09:49;;;;;;;55.53;42.38;;;;;;;;;;10145111;28;20056;-73
2024/01/16 16:14:41;;;;;;;54.60;41.40;;;;;;;;;;10149562;28;20048;-73
2024/01/16 16:19:33;;;;;;;55.78;44.58;;;;;;;;;;10147389;28;20048;-72
2024/01/16 16:24:25;;;;;;;49.33;42.80;;;;;;;;;;10145731;28;20048;-73
2024/01/16 16:29:17;;;;;;;39.05;34.05;;;;;;;;;;10144835;28;20105;-73
2024/01/16 16:34:11;;;;;;;43.50;38.13;;;;;;;;;;10148033;28;20094;-73
2024/01/16 16:39:07;;;;;;;48.92;40.30;;;;;;;;;;10144941;28;20079;-74
2024/01/16 16:44:02;;;;;;;56.67;43.55;;;;;;;;;;10147008;28;20044;-74
2024/01/16 16:48:54;;;;;;;48.20;41.15;;;;;;;;;;10145451;28;20049;-74
2024/01/16 16:53:46;;;;;;;45.85;38.45;;;;;;;;;;10143484;28;20041;-74
2024/01/16 16:58:46;;;;;;;53.38;41.08;;;;;;;;;;10143643;28;20055;-74
2024/01/16 17:03:38;;;;;;;56.15;45.40;;;;;;;;;;10144008;28;20082;-74
2024/01/16 17:08:32;;;;;;;52.58;42.72;;;;;;;;;;10143959;28;20050;-74
2024/01/16 17:13:23;;;;;;;83.60;65.55;;;;;;;;;;10150750;28;20050;-74
2024/01/16 17:18:18;;;;;;;62.05;49.05;;;;;;;;;;10144324;28;20383;-74
2024/01/16 17:23:13;;;;;;;50.33;42.75;;;;;;;;;;10158757;28;20044;-74
2024/01/16 17:28:05;;;;;;;48.13;41.88;;;;;;;;;;10142386;28;20075;-73
2024/01/16 17:32:57;;;;;;;56.65;48.10;;;;;;;;;;10143604;28;20055;-73
2024/01/16 17:37:49;;;;;;;57.35;45.03;;;;;;;;;;10143385;28;20367;-74
2024/01/16 17:42:41;;;;;;;78.82;55.50;;;;;;;;;;10149097;28;20128;-74
2024/01/16 17:47:33;;;;;;;53.45;46.25;;;;;;;;;;10120991;28;1193748;-73
2024/01/16 17:52:25;;;;;;;54.15;42.83;;;;;;;;;;10158700;28;20112;-73
2024/01/16 17:57:17;;;;;;;57.58;46.95;;;;;;;;;;10153126;28;20048;-73
2024/01/16 18:02:09;;;;;;;57.42;47.08;;;;;;;;;;10153098;28;20098;-74
2024/01/16 18:07:01;;;;;;;52.65;46.92;;;;;;;;;;10152311;28;20462;-74
2024/01/16 18:11:54;;;;;;;57.38;45.65;;;;;;;;;;10151564;28;20052;-74
2024/01/16 18:16:50;;;;;;;54.42;44.60;;;;;;;;;;10152194;28;20052;-74
2024/01/16 18:21:42;;;;;;;56.67;46.60;;;;;;;;;;10151741;28;20032;-73
2024/01/16 18:26:36;;;;;;;53.47;42.75;;;;;;;;;;10151030;28;20416;-74
2024/01/16 18:31:28;;;;;;;58.92;45.88;;;;;;;;;;10151406;28;20048;-73
2024/01/16 18:36:19;;;;;;;66.30;53.22;;;;;;;;;;10150599;28;20048;-73
2024/01/16 18:41:11;;;;;;;66.60;52.95;;;;;;;;;;10152084;28;20144;-74
2024/01/16 18:46:03;;;;;;;64.78;54.50;;;;;;;;;;10165227;28;20048;-74
2024/01/16 18:50:55;;;;;;;67.05;51.97;;;;;;;;;;10165444;28;20043;-72
2024/01/16 18:55:51;;;;;;;65.70;51.95;;;;;;;;;;10155150;28;20044;-72
2024/01/16 19:00:44;;;;;;;68.10;53.97;;;;;;;;;;10159948;28;20451;-72
2024/01/16 19:05:36;;;;;;;75.30;54.38;;;;;;;;;;10163819;28;20119;-72
2024/01/16 19:10:28;;;;;;;66.93;54.50;;;;;;;;;;10167147;28;20044;-71
2024/01/16 19:15:21;;;;;;;82.18;60.72;;;;;;;;;;10161005;28;20466;-72
2024/01/16 19:20:14;;;;;;;87.85;69.80;;;;;;;;;;10158989;28;20163;-72
2024/01/16 19:25:07;;;;;;;95.15;71.50;;;;;;;;;;10172023;28;20036;-72
2024/01/16 19:30:03;;;;;;;87.65;67.25;;;;;;;;;;10148923;28;20057;-71
2024/01/16 19:34:56;;;;;;;97.40;75.50;;;;;;;;;;10163370;28;20060;-71
2024/01/16 19:39:48;;;;;;;93.63;70.97;;;;;;;;;;10154607;28;20382;-70
2024/01/16 19:44:40;;;;;;;99.50;76.13;;;;;;;;;;10162441;28;20052;-72
2024/01/16 19:49:32;;;;;;;94.15;68.78;;;;;;;;;;10183451;28;20130;-73
2024/01/16 19:54:25;;;;;;;98.18;74.10;;;;;;;;;;10170729;28;20257;-73
2024/01/16 19:59:17;;;;;;;97.70;73.13;;;;;;;;;;10161014;28;20040;-75
2024/01/16 20:04:09;;;;;;;94.57;73.38;;;;;;;;;;10171113;28;20058;-73
2024/01/16 20:09:04;;;;;;;95.45;75.03;;;;;;;;;;10169149;28;20045;-73
2024/01/16 20:13:57;;;;;;;99.50;77.78;;;;;;;;;;10204572;28;20035;-74
2024/01/16 20:18:52;;;;;;;94.75;73.57;;;;;;;;;;10185785;28;20474;-74
2024/01/16 20:23:44;;;;;;;98.35;71.03;;;;;;;;;;10199328;28;20385;-72
2024/01/16 20:28:36;;;;;;;92.25;70.28;;;;;;;;;;10179487;28;20390;-72
2024/01/16 20:33:28;;;;;;;101.03;73.90;;;;;;;;;;10185027;28;20048;-73
2024/01/16 20:38:20;;;;;;;91.85;72.18;;;;;;;;;;10183086;28;20047;-73
2024/01/16 20:43:12;;;;;;;89.50;71.18;;;;;;;;;;10188397;28;20114;-73
2024/01/16 20:48:04;;;;;;;98.65;72.50;;;;;;;;;;10203457;28;20071;-73
2024/01/16 20:52:56;;;;;;;94.43;73.15;;;;;;;;;;10191243;28;20048;-73
2024/01/16 20:57:57;;;;;;;99.10;74.57;;;;;;;;;;10183944;28;20044;-73
2024/01/16 21:02:49;;;;;;;103.55;74.53;;;;;;;;;;10196402;28;20044;-73
2024/01/16 21:07:41;;;;;;;121.30;89.63;;;;;;;;;;10193667;28;20048;-73
2024/01/16 21:12:33;;;;;;;111.40;80.00;;;;;;;;;;10193000;28;20043;-73
2024/01/16 21:17:25;;;;;;;99.68;78.32;;;;;;;;;;10184778;28;20044;-73
2024/01/16 21:22:17;;;;;;;102.78;81.97;;;;;;;;;;10175124;28;20036;-74
2024/01/16 21:27:21;;;;;;;90.53;67.72;;;;;;;;;;10171370;28;20105;-73
2024/01/16 21:32:12;;;;;;;78.38;64.78;;;;;;;;;;10163302;28;20554;-74
2024/01/16 21:37:04;;;;;;;85.75;62.95;;;;;;;;;;10195803;28;20040;-73
2024/01/16 21:41:56;;;;;;;79.90;58.47;;;;;;;;;;10195855;28;20032;-73
2024/01/16 21:46:48;;;;;;;73.80;60.00;;;;;;;;;;10189438;28;20052;-73
2024/01/16 21:51:43;;;;;;;85.03;64.13;;;;;;;;;;10188496;28;20036;-72
2024/01/16 21:56:36;;;;;;;89.70;65.22;;;;;;;;;;10188725;28;20471;-73
2024/01/16 22:01:28;;;;;;;84.00;63.85;;;;;;;;;;10145992;28;20049;-73
2024/01/16 22:06:20;;;;;;;86.32;64.32;;;;;;;;;;10146593;28;20538;-73
2024/01/16 22:11:12;;;;;;;78.22;61.22;;;;;;;;;;10149134;28;20052;-73
2024/01/16 22:16:05;;;;;;;87.68;62.15;;;;;;;;;;10143360;28;20055;-74
2024/01/16 22:20:57;;;;;;;76.13;59.00;;;;;;;;;;10150955;28;20048;-74
2024/01/16 22:25:49;;;;;;;82.22;63.67;;;;;;;;;;10143829;28;20468;-74
2024/01/16 22:30:41;;;;;;;77.80;61.85;;;;;;;;;;10151752;28;20479;-74
2024/01/16 22:35:32;;;;;;;76.25;60.28;;;;;;;;;;10156643;28;20127;-74
2024/01/16 22:40:26;;;;;;;76.40;61.38;;;;;;;;;;10171040;28;20048;-74
2024/01/16 22:45:18;;;;;;;73.75;58.80;;;;;;;;;;10152744;28;20152;-73
2024/01/16 22:50:11;;;;;;;81.82;63.72;;;;;;;;;;10150628;28;20700;-73
2024/01/16 22:55:06;;;;;;;88.20;68.07;;;;;;;;;;10151299;28;20059;-73
2024/01/16 22:59:58;;;;;;;91.45;66.47;;;;;;;;;;10167656;28;20075;-73
2024/01/16 23:04:50;;;;;;;89.30;69.68;;;;;;;;;;10187842;28;20063;-73
2024/01/16 23:09:43;;;;;;;80.70;64.65;;;;;;;;;;10199633;28;20048;-73
2024/01/16 23:14:35;;;;;;;84.53;64.18;;;;;;;;;;10186414;28;20404;-73
2024/01/16 23:19:27;;;;;;;69.10;57.35;;;;;;;;;;10188158;28;20047;-73
2024/01/16 23:24:19;;;;;;;79.60;62.42;;;;;;;;;;10185934;28;20044;-73
2024/01/16 23:29:11;;;;;;;79.32;61.85;;;;;;;;;;10182678;28;20139;-73
2024/01/16 23:34:03;;;;;;;80.70;59.28;;;;;;;;;;10187616;28;20109;-73
2024/01/16 23:38:56;;;;;;;78.75;59.75;;;;;;;;;;10186627;28;20048;-73
2024/01/16 23:43:48;;;;;;;75.85;58.92;;;;;;;;;;10185299;28;20051;-73
2024/01/16 23:48:43;;;;;;;71.55;55.70;;;;;;;;;;10186400;28;20535;-74
2024/01/16 23:53:36;;;;;;;73.53;56.65;;;;;;;;;;10186273;28;20094;-73
2024/01/16 23:58:28;;;;;;;71.38;57.97;;;;;;;;;;10186048;28;20327;-73
